createdAt,value
2022-10-07T00:00:49.024Z,101518.81
2022-10-07T00:03:34.036Z,101516.69
2022-10-07T00:06:08.822Z,101521.65
2022-10-07T00:08:42.675Z,101521.18
2022-10-07T00:11:16.712Z,101521.27
2022-10-07T00:13:49.800Z,101525.36
2022-10-07T00:16:24.706Z,101519.54
2022-10-07T00:18:56.611Z,101521.52
2022-10-07T00:21:30.836Z,101522.16
2022-10-07T00:24:04.049Z,101518.86
2022-10-07T00:26:38.528Z,101520.74
2022-10-07T00:29:10.636Z,101524.02
2022-10-07T00:31:42.951Z,101526.52
2022-10-07T00:34:15.373Z,101526.24
2022-10-07T00:36:51.106Z,101523.44
2022-10-07T00:39:23.307Z,101521.37
2022-10-07T00:41:55.959Z,101519.33
2022-10-07T00:44:41.956Z,101515.30
2022-10-07T00:47:24.417Z,101513.17
2022-10-07T00:50:02.570Z,101511.67
2022-10-07T00:52:38.287Z,101510.60
2022-10-07T00:55:14.654Z,101514.20
2022-10-07T00:57:48.510Z,101517.38
2022-10-07T01:00:23.569Z,101515.20
2022-10-07T01:02:55.721Z,101513.30
2022-10-07T01:05:27.856Z,101511.45
2022-10-07T01:08:01.255Z,101510.47
2022-10-07T01:10:41.731Z,101505.18
2022-10-07T01:13:19.859Z,101505.47
2022-10-07T01:15:58.245Z,101504.85
2022-10-07T01:18:38.363Z,101504.59
2022-10-07T01:21:16.734Z,101501.36
2022-10-07T01:24:04.806Z,101505.30
2022-10-07T01:27:01.943Z,101506.92
2022-10-07T01:29:39.574Z,101505.80
2022-10-07T01:32:20.086Z,101504.36
2022-10-07T01:34:55.207Z,101502.16
2022-10-07T01:37:30.611Z,101501.00
2022-10-07T01:40:07.587Z,101502.45
2022-10-07T01:42:40.721Z,101506.08
2022-10-07T01:45:16.155Z,101508.92
2022-10-07T01:47:48.317Z,101511.39
2022-10-07T01:50:23.611Z,101509.06
2022-10-07T01:53:15.526Z,101510.63
2022-10-07T01:56:13.076Z,101506.66
2022-10-07T01:59:07.271Z,101500.48
2022-10-07T02:01:48.370Z,101494.02
2022-10-07T02:04:44.692Z,101495.58
2022-10-07T02:07:33.609Z,101495.98
2022-10-07T02:10:14.012Z,101495.23
2022-10-07T02:12:53.459Z,101493.55
2022-10-07T02:15:29.223Z,101498.02
2022-10-07T02:18:07.487Z,101496.40
2022-10-07T02:20:42.914Z,101493.26
2022-10-07T02:23:17.469Z,101491.69
2022-10-07T02:25:52.113Z,101490.33
2022-10-07T02:28:26.190Z,101488.43
2022-10-07T02:31:02.827Z,101484.02
2022-10-07T02:33:38.559Z,101483.37
2022-10-07T02:36:12.805Z,101483.93
2022-10-07T02:38:46.325Z,101482.77
2022-10-07T02:41:32.466Z,101481.91
2022-10-07T02:44:19.835Z,101479.67
2022-10-07T02:46:56.031Z,101481.20
2022-10-07T02:49:30.320Z,101483.09
2022-10-07T02:52:08.168Z,101485.96
2022-10-07T02:54:43.564Z,101485.60
2022-10-07T02:57:19.161Z,101484.93
2022-10-07T02:59:53.720Z,101481.67
2022-10-07T03:02:30.846Z,101483.68
2022-10-07T03:05:03.162Z,101485.55
2022-10-07T03:07:35.446Z,101480.64
2022-10-07T03:10:11.619Z,101478.44
2022-10-07T03:12:42.247Z,101478.46
2022-10-07T03:15:14.556Z,101481.20
2022-10-07T03:17:47.175Z,101481.39
2022-10-07T03:20:19.644Z,101476.63
2022-10-07T03:22:51.713Z,101469.84
2022-10-07T03:25:24.656Z,101469.79
2022-10-07T03:27:58.064Z,101466.23
2022-10-07T03:30:30.329Z,101466.19
2022-10-07T03:33:04.072Z,101466.70
2022-10-07T03:35:36.363Z,101468.77
2022-10-07T03:38:08.766Z,101463.66
2022-10-07T03:40:41.454Z,101463.60
2022-10-07T03:43:13.921Z,101462.44
2022-10-07T03:45:52.678Z,101464.54
2022-10-07T03:48:25.108Z,101461.60
2022-10-07T03:50:57.776Z,101466.88
2022-10-07T03:53:31.552Z,101468.29
2022-10-07T03:56:05.425Z,101466.62
2022-10-07T03:58:38.482Z,101465.48
2022-10-07T04:01:15.227Z,101464.25
2022-10-07T04:03:56.074Z,101465.31
2022-10-07T04:06:30.321Z,101464.73
2022-10-07T04:09:03.608Z,101464.45
2022-10-07T04:11:35.760Z,101465.58
2022-10-07T04:14:07.849Z,101459.98
2022-10-07T04:16:40.133Z,101460.05
2022-10-07T04:19:14.315Z,101457.73
2022-10-07T04:21:47.041Z,101455.66
2022-10-07T04:24:19.817Z,101450.63
2022-10-07T04:26:52.584Z,101454.98
2022-10-07T04:29:25.622Z,101447.61
2022-10-07T04:31:58.983Z,101444.98
2022-10-07T04:34:31.218Z,101453.52
2022-10-07T04:37:03.333Z,101452.46
2022-10-07T04:39:56.437Z,101452.92
2022-10-07T04:42:45.907Z,101450.95
2022-10-07T04:45:18.875Z,101453.36
2022-10-07T04:47:51.018Z,101450.54
2022-10-07T04:50:23.519Z,101449.13
2022-10-07T04:52:57.375Z,101451.02
2022-10-07T04:55:30.958Z,101449.39
2022-10-07T04:58:03.071Z,101446.59
2022-10-07T05:00:36.125Z,101449.79
2022-10-07T05:03:08.692Z,101446.98
2022-10-07T05:05:44.073Z,101447.58
2022-10-07T05:08:19.492Z,101441.42
2022-10-07T05:10:57.205Z,101442.05
2022-10-07T05:13:30.640Z,101437.02
2022-10-07T05:16:04.360Z,101432.27
2022-10-07T05:18:39.518Z,101431.92
2022-10-07T05:21:14.130Z,101428.55
2022-10-07T05:23:49.558Z,101424.28
2022-10-07T05:26:25.981Z,101424.16
2022-10-07T05:29:01.501Z,101426.64
2022-10-07T05:31:39.430Z,101430.49
2022-10-07T05:34:12.020Z,101430.13
2022-10-07T05:36:44.742Z,101429.42
2022-10-07T05:39:17.254Z,101428.78
2022-10-07T05:41:54.218Z,101428.61
2022-10-07T05:44:32.266Z,101432.58
2022-10-07T05:47:05.053Z,101432.52
2022-10-07T05:49:37.593Z,101438.21
2022-10-07T05:52:10.381Z,101431.39
2022-10-07T05:54:42.814Z,101434.83
2022-10-07T05:57:15.112Z,101435.15
2022-10-07T05:59:47.277Z,101436.81
2022-10-07T06:02:20.707Z,101437.90
2022-10-07T06:04:54.049Z,101441.32
2022-10-07T06:07:29.317Z,101436.59
2022-10-07T06:10:20.874Z,101440.10
2022-10-07T06:13:08.580Z,101441.45
2022-10-07T06:15:42.578Z,101446.73
2022-10-07T06:18:14.984Z,101449.22
2022-10-07T06:20:57.392Z,101455.52
2022-10-07T06:23:30.989Z,101452.64
2022-10-07T06:26:05.256Z,101452.66
2022-10-07T06:28:40.187Z,101455.50
2022-10-07T06:31:15.101Z,101453.80
2022-10-07T06:33:48.155Z,101452.69
2022-10-07T06:36:21.466Z,101451.63
2022-10-07T06:38:57.594Z,101452.02
2022-10-07T06:41:33.588Z,101454.33
2022-10-07T06:44:30.428Z,101456.82
2022-10-07T06:47:04.188Z,101457.98
2022-10-07T06:49:39.101Z,101457.83
2022-10-07T06:52:12.438Z,101457.21
2022-10-07T06:54:45.885Z,101460.67
2022-10-07T06:57:43.850Z,101459.88
2022-10-07T07:00:15.384Z,101460.10
2022-10-07T07:02:48.561Z,101458.46
2022-10-07T07:05:21.098Z,101459.47
2022-10-07T07:07:55.847Z,101461.88
2022-10-07T07:10:29.986Z,101456.92
2022-10-07T07:13:02.744Z,101454.89
2022-10-07T07:15:35.148Z,101456.11
2022-10-07T07:18:12.767Z,101452.55
2022-10-07T07:20:45.519Z,101450.48
2022-10-07T07:23:17.874Z,101451.01
2022-10-07T07:25:52.907Z,101448.29
2022-10-07T07:28:25.348Z,101449.42
2022-10-07T07:30:57.794Z,101454.70
2022-10-07T07:33:30.225Z,101450.06
2022-10-07T07:36:02.565Z,101446.23
2022-10-07T07:38:34.837Z,101444.70
2022-10-07T07:41:10.151Z,101447.80
2022-10-07T07:43:42.308Z,101444.31
2022-10-07T07:46:14.756Z,101442.23
2022-10-07T07:48:47.918Z,101440.88
2022-10-07T07:51:20.439Z,101443.27
2022-10-07T07:53:53.014Z,101439.50
2022-10-07T07:56:25.540Z,101439.15
2022-10-07T07:58:58.081Z,101442.80
2022-10-07T08:01:32.090Z,101441.00
2022-10-07T08:04:05.930Z,101446.58
2022-10-07T08:06:38.818Z,101445.45
2022-10-07T08:09:12.912Z,101442.66
2022-10-07T08:11:46.545Z,101443.64
2022-10-07T08:14:22.941Z,101446.13
2022-10-07T08:16:59.231Z,101441.91
2022-10-07T08:19:32.037Z,101437.78
2022-10-07T08:22:04.684Z,101433.23
2022-10-07T08:24:37.823Z,101436.98
2022-10-07T08:27:10.237Z,101433.02
2022-10-07T08:29:42.624Z,101429.25
2022-10-07T08:32:15.705Z,101426.20
2022-10-07T08:34:47.978Z,101421.30
2022-10-07T08:37:20.637Z,101419.69
2022-10-07T08:39:52.890Z,101414.64
2022-10-07T08:42:29.562Z,101416.67
2022-10-07T08:45:02.443Z,101413.45
2022-10-07T08:47:39.946Z,101416.70
2022-10-07T08:50:19.865Z,101410.71
2022-10-07T08:52:56.347Z,101411.09
2022-10-07T08:55:36.596Z,101407.70
2022-10-07T08:58:29.866Z,101403.93
2022-10-07T09:01:12.846Z,101401.89
2022-10-07T09:03:52.285Z,101402.27
2022-10-07T09:06:31.888Z,101404.94
2022-10-07T09:09:11.871Z,101398.98
2022-10-07T09:11:48.264Z,101399.85
2022-10-07T09:14:27.552Z,101403.19
2022-10-07T09:17:08.000Z,101400.39
2022-10-07T09:19:44.846Z,101395.12
2022-10-07T09:22:23.117Z,101392.32
2022-10-07T09:25:07.546Z,101386.02
2022-10-07T09:27:43.257Z,101388.52
2022-10-07T09:30:17.503Z,101383.83
2022-10-07T09:32:52.003Z,101384.29
2022-10-07T09:35:27.024Z,101380.09
2022-10-07T09:38:01.946Z,101373.75
2022-10-07T09:41:03.218Z,101371.70
2022-10-07T09:43:36.546Z,101362.62
2022-10-07T09:46:25.726Z,101363.30
2022-10-07T09:48:59.399Z,101356.88
2022-10-07T09:51:32.829Z,101352.02
2022-10-07T09:54:07.394Z,101349.84
2022-10-07T09:56:42.485Z,101350.25
2022-10-07T09:59:23.678Z,101348.05
2022-10-07T10:01:59.000Z,101340.70
2022-10-07T10:04:35.638Z,101343.02
2022-10-07T10:07:22.975Z,101333.89
2022-10-07T10:09:57.630Z,101323.33
2022-10-07T10:12:32.558Z,101324.83
2022-10-07T10:15:17.533Z,101318.65
2022-10-07T10:17:50.122Z,101321.34
2022-10-07T10:20:36.183Z,101317.56
2022-10-07T10:23:29.493Z,101316.09
2022-10-07T10:26:33.341Z,101312.33
2022-10-07T10:29:18.077Z,101306.14
2022-10-07T10:32:16.893Z,101303.52
2022-10-07T10:34:56.076Z,101299.74
2022-10-07T10:37:39.812Z,101292.89
2022-10-07T10:40:23.010Z,101289.41
2022-10-07T10:43:06.203Z,101281.44
2022-10-07T10:45:45.931Z,101283.60
2022-10-07T10:48:30.600Z,101281.75
2022-10-07T10:51:24.282Z,101278.22
2022-10-07T10:54:09.391Z,101274.98
2022-10-07T10:56:48.937Z,101264.89
2022-10-07T10:59:42.845Z,101265.75
2022-10-07T11:02:35.070Z,101261.00
2022-10-07T11:05:14.457Z,101258.44
2022-10-07T11:07:53.990Z,101252.63
2022-10-07T11:10:31.768Z,101250.38
2022-10-07T11:13:19.169Z,101247.96
2022-10-07T11:15:57.171Z,101244.52
2022-10-07T11:18:37.141Z,101237.59
2022-10-07T11:21:15.912Z,101229.11
2022-10-07T11:23:54.282Z,101228.00
2022-10-07T11:26:34.716Z,101221.15
2022-10-07T11:29:17.110Z,101215.98
2022-10-07T11:31:57.126Z,101216.23
2022-10-07T11:34:42.321Z,101212.02
2022-10-07T11:37:20.818Z,101205.98
2022-10-07T11:39:54.701Z,101200.89
2022-10-07T11:42:30.443Z,101193.05
2022-10-07T11:45:08.324Z,101186.17
2022-10-07T11:47:44.804Z,101181.70
2022-10-07T11:50:20.861Z,101176.66
2022-10-07T11:52:56.411Z,101168.59
2022-10-07T11:55:34.732Z,101166.77
2022-10-07T11:58:09.043Z,101162.06
2022-10-07T12:00:41.672Z,101160.25
2022-10-07T12:03:44.616Z,101156.02
2022-10-07T12:06:16.901Z,101149.29
2022-10-07T12:08:49.521Z,101148.16
2022-10-07T12:11:47.544Z,101146.39
2022-10-07T12:14:59.488Z,101134.88
2022-10-07T12:17:31.790Z,101131.52
2022-10-07T12:20:45.261Z,101125.50
2022-10-07T12:23:51.271Z,101120.09
2022-10-07T12:26:54.261Z,101110.01
2022-10-07T12:29:34.009Z,101106.40
2022-10-07T12:32:26.581Z,101104.86
2022-10-07T12:35:18.751Z,101103.55
2022-10-07T12:38:03.058Z,101098.85
2022-10-07T12:40:39.113Z,101096.45
2022-10-07T12:43:26.307Z,101093.31
2022-10-07T12:45:59.753Z,101084.93
2022-10-07T12:48:38.739Z,101080.64
2022-10-07T12:51:18.533Z,101070.84
2022-10-07T12:53:53.111Z,101069.23
2022-10-07T12:56:29.224Z,101063.05
2022-10-07T12:59:43.524Z,101059.78
2022-10-07T13:02:45.979Z,101054.98
2022-10-07T13:06:15.924Z,101049.39
2022-10-07T13:09:24.815Z,101045.98
2022-10-07T13:12:28.101Z,101042.36
2022-10-07T13:15:26.505Z,101035.86
2022-10-07T13:18:07.387Z,101033.88
2022-10-07T13:20:55.969Z,101029.88
2022-10-07T13:23:31.790Z,101031.09
2022-10-07T13:26:05.427Z,101020.20
2022-10-07T13:28:48.670Z,101013.05
2022-10-07T13:31:24.540Z,101005.99
2022-10-07T13:34:19.196Z,101003.38
2022-10-07T13:36:51.464Z,100999.63
2022-10-07T13:39:25.834Z,101001.02
2022-10-07T13:42:03.190Z,100989.69
2022-10-07T13:44:36.362Z,100981.34
2022-10-07T13:47:10.141Z,100982.89
2022-10-07T13:49:48.797Z,100980.41
2022-10-07T13:52:27.065Z,100979.84
2022-10-07T13:54:59.466Z,100977.81
2022-10-07T13:57:36.118Z,100970.40
2022-10-07T14:00:12.691Z,100970.42
2022-10-07T14:02:46.296Z,100963.63
2022-10-07T14:05:24.024Z,100960.55
2022-10-07T14:07:58.741Z,100958.40
2022-10-07T14:10:30.594Z,100949.46
2022-10-07T14:13:07.378Z,100948.73
2022-10-07T14:15:48.018Z,100944.57
2022-10-07T14:18:20.456Z,100944.20
2022-10-07T14:20:55.921Z,100941.90
2022-10-07T14:23:31.316Z,100938.54
2022-10-07T14:26:05.597Z,100933.59
2022-10-07T14:28:39.790Z,100932.83
2022-10-07T14:31:38.977Z,100926.23
2022-10-07T14:34:36.953Z,100922.48
2022-10-07T14:37:11.316Z,100913.16
2022-10-07T14:39:47.779Z,100908.05
2022-10-07T14:42:23.934Z,100902.17
2022-10-07T14:44:57.616Z,100896.71
2022-10-07T14:47:31.529Z,100896.98
2022-10-07T14:50:03.793Z,100891.61
2022-10-07T14:52:44.537Z,100890.27
2022-10-07T14:55:20.818Z,100885.91
2022-10-07T14:57:53.493Z,100878.94
2022-10-07T15:00:29.463Z,100875.36
2022-10-07T15:03:02.977Z,100869.41
2022-10-07T15:05:35.346Z,100865.22
2022-10-07T15:08:07.567Z,100863.91
2022-10-07T15:10:42.365Z,100855.95
2022-10-07T15:13:15.186Z,100859.96
2022-10-07T15:15:49.409Z,100857.10
2022-10-07T15:18:21.729Z,100851.71
2022-10-07T15:20:59.205Z,100849.52
2022-10-07T15:23:31.495Z,100845.48
2022-10-07T15:26:03.869Z,100838.42
2022-10-07T15:28:37.415Z,100840.20
2022-10-07T15:31:10.999Z,100838.35
2022-10-07T15:33:44.453Z,100830.38
2022-10-07T15:36:17.862Z,100828.86
2022-10-07T15:38:50.097Z,100827.27
2022-10-07T15:41:34.970Z,100828.04
2022-10-07T15:44:13.902Z,100825.55
2022-10-07T15:46:47.687Z,100822.09
2022-10-07T15:49:19.940Z,100820.98
2022-10-07T15:51:52.174Z,100819.80
2022-10-07T15:54:25.991Z,100818.60
2022-10-07T15:56:58.344Z,100818.38
2022-10-07T15:59:30.749Z,100813.77
2022-10-07T16:02:03.901Z,100808.61
2022-10-07T16:04:36.103Z,100805.18
2022-10-07T16:07:08.497Z,100800.66
2022-10-07T16:09:41.059Z,100799.45
2022-10-07T16:12:13.565Z,100796.25
2022-10-07T16:14:47.509Z,100794.19
2022-10-07T16:17:19.886Z,100795.22
2022-10-07T16:19:52.105Z,100793.86
2022-10-07T16:22:24.337Z,100788.56
2022-10-07T16:24:56.569Z,100787.27
2022-10-07T16:27:49.605Z,100783.83
2022-10-07T16:30:39.761Z,100780.55
2022-10-07T16:33:11.952Z,100775.73
2022-10-07T16:35:44.201Z,100778.70
2022-10-07T16:38:16.658Z,100776.64
2022-10-07T16:40:56.071Z,100774.35
2022-10-07T16:43:29.654Z,100773.94
2022-10-07T16:46:05.048Z,100773.88
2022-10-07T16:48:41.280Z,100769.84
2022-10-07T16:51:16.394Z,100768.86
2022-10-07T16:53:50.678Z,100764.79
2022-10-07T16:56:23.765Z,100765.15
2022-10-07T16:58:59.840Z,100764.16
2022-10-07T17:01:33.827Z,100760.87
2022-10-07T17:04:07.178Z,100758.41
2022-10-07T17:06:39.435Z,100760.40
2022-10-07T17:09:11.607Z,100758.59
2022-10-07T17:11:44.525Z,100757.00
2022-10-07T17:14:18.743Z,100755.02
2022-10-07T17:16:52.530Z,100748.30
2022-10-07T17:19:26.554Z,100750.04
2022-10-07T17:22:01.017Z,100750.89
2022-10-07T17:24:33.238Z,100747.94
2022-10-07T17:27:08.637Z,100748.32
2022-10-07T17:29:40.863Z,100742.34
2022-10-07T17:32:13.096Z,100741.77
2022-10-07T17:34:45.628Z,100740.08
2022-10-07T17:37:17.887Z,100739.23
2022-10-07T17:39:50.085Z,100735.66
2022-10-07T17:42:22.496Z,100736.67
2022-10-07T17:44:55.232Z,100735.22
2022-10-07T17:47:27.580Z,100733.96
2022-10-07T17:49:59.894Z,100728.96
2022-10-07T17:52:32.825Z,100725.39
2022-10-07T17:55:06.250Z,100726.39
2022-10-07T17:57:39.232Z,100722.09
2022-10-07T18:00:13.417Z,100719.59
2022-10-07T18:02:46.216Z,100719.02
2022-10-07T18:05:19.760Z,100718.10
2022-10-07T18:07:52.600Z,100713.88
2022-10-07T18:10:24.886Z,100707.58
2022-10-07T18:13:15.025Z,100702.40
2022-10-07T18:15:57.042Z,100704.34
2022-10-07T18:18:30.142Z,100696.98
2022-10-07T18:21:06.966Z,100693.29
2022-10-07T18:23:40.053Z,100694.88
2022-10-07T18:26:13.844Z,100692.44
2022-10-07T18:28:47.282Z,100691.81
2022-10-07T18:31:21.305Z,100688.52
2022-10-07T18:33:53.452Z,100686.38
2022-10-07T18:36:25.833Z,100680.06
2022-10-07T18:38:58.484Z,100674.92
2022-10-07T18:41:30.814Z,100675.33
2022-10-07T18:44:03.186Z,100669.88
2022-10-07T18:46:35.734Z,100668.41
2022-10-07T18:49:09.482Z,100664.61
2022-10-07T18:51:42.143Z,100662.21
2022-10-07T18:54:14.743Z,100660.98
2022-10-07T18:56:49.746Z,100657.14
2022-10-07T18:59:21.054Z,100653.20
2022-10-07T19:01:53.348Z,100651.05
2022-10-07T19:04:25.822Z,100649.24
2022-10-07T19:06:58.043Z,100650.10
2022-10-07T19:09:30.382Z,100649.56
2022-10-07T19:12:02.862Z,100650.96
2022-10-07T19:14:35.133Z,100650.30
2022-10-07T19:17:07.334Z,100647.70
2022-10-07T19:19:41.363Z,100647.45
2022-10-07T19:22:15.212Z,100645.35
2022-10-07T19:25:05.215Z,100645.05
2022-10-07T19:27:37.557Z,100641.67
2022-10-07T19:30:12.087Z,100639.42
2022-10-07T19:32:45.006Z,100640.31
2022-10-07T19:35:17.401Z,100637.95
2022-10-07T19:37:49.947Z,100637.09
2022-10-07T19:40:22.374Z,100636.79
2022-10-07T19:42:54.614Z,100633.45
2022-10-07T19:45:26.994Z,100631.86
2022-10-07T19:47:59.313Z,100632.86
2022-10-07T19:50:31.634Z,100629.79
2022-10-07T19:53:03.958Z,100626.02
2022-10-07T19:55:36.826Z,100625.73
2022-10-07T19:58:13.178Z,100623.20
2022-10-07T20:00:45.456Z,100621.35
2022-10-07T20:03:17.795Z,100617.77
2022-10-07T20:05:50.018Z,100615.52
2022-10-07T20:08:22.353Z,100617.69
2022-10-07T20:10:54.821Z,100616.45
2022-10-07T20:13:27.191Z,100613.45
2022-10-07T20:16:06.282Z,100611.14
2022-10-07T20:18:40.350Z,100606.41
2022-10-07T20:21:16.160Z,100600.95
2022-10-07T20:23:50.001Z,100599.22
2022-10-07T20:26:24.759Z,100597.14
2022-10-07T20:28:59.760Z,100600.45
2022-10-07T20:31:34.933Z,100595.70
2022-10-07T20:34:14.455Z,100589.84
2022-10-07T20:36:47.269Z,100585.77
2022-10-07T20:39:38.761Z,100588.45
2022-10-07T20:42:27.430Z,100581.89
2022-10-07T20:45:00.130Z,100579.88
2022-10-07T20:47:35.174Z,100572.77
2022-10-07T20:50:08.460Z,100569.88
2022-10-07T20:52:40.889Z,100567.08
2022-10-07T20:55:14.461Z,100563.09
2022-10-07T20:57:47.224Z,100563.06
2022-10-07T21:00:19.623Z,100559.16
2022-10-07T21:02:52.029Z,100558.35
2022-10-07T21:05:24.752Z,100557.36
2022-10-07T21:07:57.052Z,100555.80
2022-10-07T21:10:29.388Z,100550.52
2022-10-07T21:13:01.968Z,100549.98
2022-10-07T21:15:37.733Z,100549.20
2022-10-07T21:18:10.149Z,100541.42
2022-10-07T21:20:56.492Z,100539.60
2022-10-07T21:23:29.953Z,100536.81
2022-10-07T21:26:04.159Z,100537.03
2022-10-07T21:28:37.806Z,100532.85
2022-10-07T21:31:15.152Z,100529.29
2022-10-07T21:33:49.571Z,100531.22
2022-10-07T21:36:24.403Z,100529.48
2022-10-07T21:39:00.496Z,100529.04
2022-10-07T21:41:34.901Z,100523.16
2022-10-07T21:44:10.480Z,100521.13
2022-10-07T21:46:43.982Z,100520.14
2022-10-07T21:49:17.576Z,100514.65
2022-10-07T21:51:49.802Z,100520.54
2022-10-07T21:54:22.139Z,100513.98
2022-10-07T21:56:54.521Z,100512.46
2022-10-07T21:59:26.980Z,100509.73
2022-10-07T22:01:59.293Z,100504.55
2022-10-07T22:04:31.559Z,100502.11
2022-10-07T22:07:26.572Z,100499.59
2022-10-07T22:09:59.118Z,100494.80
2022-10-07T22:12:31.342Z,100488.46
2022-10-07T22:15:03.618Z,100486.92
2022-10-07T22:17:35.951Z,100484.88
2022-10-07T22:20:09.720Z,100476.21
2022-10-07T22:22:42.431Z,100470.36
2022-10-07T22:25:14.712Z,100468.69
2022-10-07T22:27:48.880Z,100458.65
2022-10-07T22:30:21.319Z,100451.35
2022-10-07T22:32:53.676Z,100449.64
2022-10-07T22:35:30.376Z,100449.08
2022-10-07T22:38:03.113Z,100443.73
2022-10-07T22:40:39.674Z,100442.17
2022-10-07T22:43:12.111Z,100439.16
2022-10-07T22:45:44.534Z,100436.27
2022-10-07T22:48:17.179Z,100433.65
2022-10-07T22:50:49.476Z,100433.77
2022-10-07T22:53:23.182Z,100430.88
2022-10-07T22:55:55.489Z,100427.87
2022-10-07T22:58:27.805Z,100423.84
2022-10-07T23:01:05.378Z,100421.86
2022-10-07T23:03:40.104Z,100421.79
2022-10-07T23:06:13.520Z,100419.80
2022-10-07T23:08:46.922Z,100420.30
2022-10-07T23:11:23.433Z,100421.25
2022-10-07T23:13:56.655Z,100417.95
2022-10-07T23:16:32.516Z,100408.41
2022-10-07T23:19:04.830Z,100405.45
2022-10-07T23:21:37.944Z,100404.14
2022-10-07T23:24:11.765Z,100401.29
2022-10-07T23:26:46.616Z,100396.46
2022-10-07T23:29:17.341Z,100392.04
2022-10-07T23:31:49.620Z,100387.81
2022-10-07T23:34:22.013Z,100383.48
2022-10-07T23:36:55.248Z,100383.98
2022-10-07T23:39:27.689Z,100380.91
2022-10-07T23:41:59.946Z,100376.66
2022-10-07T23:44:32.232Z,100372.96
2022-10-07T23:47:05.276Z,100367.58
2022-10-07T23:49:37.607Z,100370.33
2022-10-07T23:52:09.808Z,100368.24
2022-10-07T23:54:42.189Z,100368.61
2022-10-07T23:57:14.475Z,100360.81
2022-10-07T23:59:46.820Z,100358.84
